Time;durP1;ratioP1;P1;durP2;ratioP2;P2;SDS_P1;SDS_P2;PMS_P1;PMS_P2;Temp;Humidity;BMP_temperature;BMP_pressure;BME280_temperature;BME280_humidity;BME280_pressure;Samples;Min_cycle;Max_cycle;Signal;HPM_P1;HPM_P2
2024/02/14 06:01:42;;;;;;;13.80;8.07;;;;;;;;;;5449975;22;20495;-74
2024/02/14 06:04:08;;;;;;;17.53;8.00;;;;;;;;;;5034109;28;20465;-73
2024/02/14 06:06:34;;;;;;;17.20;8.03;;;;;;;;;;5032293;28;20475;-73
2024/02/14 06:09:00;;;;;;;15.80;8.10;;;;;;;;;;5034309;28;20413;-73
2024/02/14 06:11:26;;;;;;;21.10;9.10;;;;;;;;;;5033644;28;20429;-73
2024/02/14 06:13:52;;;;;;;26.67;8.90;;;;;;;;;;5034386;28;20452;-74
2024/02/14 06:16:19;;;;;;;15.77;8.07;;;;;;;;;;5033657;28;20780;-74
2024/02/14 06:18:45;;;;;;;17.90;8.27;;;;;;;;;;5032737;28;20421;-74
2024/02/14 06:21:11;;;;;;;16.43;8.43;;;;;;;;;;5033602;28;20803;-74
2024/02/14 06:23:38;;;;;;;16.57;8.40;;;;;;;;;;5033631;28;20449;-73
2024/02/14 06:26:04;;;;;;;16.63;8.20;;;;;;;;;;5033625;28;20408;-73
2024/02/14 06:28:30;;;;;;;16.27;8.20;;;;;;;;;;5033823;28;20516;-73
2024/02/14 06:30:56;;;;;;;16.33;6.63;;;;;;;;;;5033445;28;20504;-73
2024/02/14 06:33:22;;;;;;;25.27;8.73;;;;;;;;;;5033523;28;20417;-74
2024/02/14 06:35:48;;;;;;;16.53;7.10;;;;;;;;;;5030024;28;20421;-74
2024/02/14 06:38:14;;;;;;;19.80;8.50;;;;;;;;;;5033508;28;20421;-74
2024/02/14 06:40:40;;;;;;;12.63;7.63;;;;;;;;;;5031922;28;20862;-74
2024/02/14 06:43:06;;;;;;;16.93;8.10;;;;;;;;;;5031989;28;20619;-74
2024/02/14 06:45:33;;;;;;;18.57;9.70;;;;;;;;;;5031928;28;20459;-74
2024/02/14 06:47:59;;;;;;;22.60;8.07;;;;;;;;;;5032103;28;20427;-74
2024/02/14 06:50:29;;;;;;;14.00;7.13;;;;;;;;;;5031651;28;20976;-74
2024/02/14 06:52:59;;;;;;;21.60;8.97;;;;;;;;;;5031913;28;20413;-74
2024/02/14 06:55:25;;;;;;;18.13;8.47;;;;;;;;;;5031875;28;20483;-74
2024/02/14 06:57:51;;;;;;;23.77;9.40;;;;;;;;;;5031904;28;20989;-75
2024/02/14 07:00:17;;;;;;;19.43;7.90;;;;;;;;;;5031611;28;20421;-74
2024/02/14 07:02:43;;;;;;;18.80;7.23;;;;;;;;;;5026060;28;20464;-73
2024/02/14 07:05:12;;;;;;;16.13;8.20;;;;;;;;;;5014097;28;20418;-72
2024/02/14 07:07:38;;;;;;;14.77;6.90;;;;;;;;;;5013036;28;20479;-73
2024/02/14 07:10:06;;;;;;;19.73;6.90;;;;;;;;;;5012961;28;20410;-73
2024/02/14 07:12:32;;;;;;;21.73;6.63;;;;;;;;;;5031240;28;20797;-73
2024/02/14 07:14:58;;;;;;;12.70;5.63;;;;;;;;;;5032621;28;20500;-73
2024/02/14 07:17:24;;;;;;;13.73;6.50;;;;;;;;;;5032522;28;20439;-72
2024/02/14 07:19:50;;;;;;;13.77;7.07;;;;;;;;;;5028429;28;20439;-75
2024/02/14 07:22:18;;;;;;;12.90;5.70;;;;;;;;;;5011544;28;20440;-76
2024/02/14 07:24:46;;;;;;;15.73;7.23;;;;;;;;;;5011049;28;20464;-76
2024/02/14 07:27:12;;;;;;;17.43;6.50;;;;;;;;;;5011762;28;20406;-76
2024/02/14 07:29:38;;;;;;;16.87;6.53;;;;;;;;;;5012537;28;20406;-76
2024/02/14 07:32:04;;;;;;;12.20;5.90;;;;;;;;;;5013179;28;20465;-76
2024/02/14 07:34:30;;;;;;;15.17;6.47;;;;;;;;;;5013805;28;20762;-76
2024/02/14 07:36:56;;;;;;;14.30;7.43;;;;;;;;;;5012879;28;20420;-76
2024/02/14 07:39:22;;;;;;;23.23;9.20;;;;;;;;;;5024154;28;20429;-77
2024/02/14 07:41:49;;;;;;;34.60;10.73;;;;;;;;;;5032102;28;20519;-76
2024/02/14 07:44:15;;;;;;;15.13;7.47;;;;;;;;;;5030884;28;20471;-76
2024/02/14 07:46:41;;;;;;;18.43;7.10;;;;;;;;;;5019002;28;20410;-75
2024/02/14 07:49:08;;;;;;;14.33;6.50;;;;;;;;;;5010863;28;20414;-73
2024/02/14 07:51:36;;;;;;;14.77;5.97;;;;;;;;;;5012369;28;20429;-70
2024/02/14 07:54:03;;;;;;;11.57;5.87;;;;;;;;;;5010585;28;20429;-73
2024/02/14 07:56:29;;;;;;;19.77;6.60;;;;;;;;;;5012623;28;20418;-71
2024/02/14 07:58:55;;;;;;;11.93;5.70;;;;;;;;;;5025533;28;20421;-72
2024/02/14 08:01:21;;;;;;;22.50;7.27;;;;;;;;;;5015590;28;20583;-71
2024/02/14 08:03:47;;;;;;;12.23;7.00;;;;;;;;;;5011712;28;20558;-71
2024/02/14 08:06:14;;;;;;;16.60;8.33;;;;;;;;;;5010490;28;20448;-71
2024/02/14 08:08:39;;;;;;;17.33;7.60;;;;;;;;;;5011166;28;20938;-72
2024/02/14 08:11:06;;;;;;;21.80;9.00;;;;;;;;;;5014027;28;20449;-72
2024/02/14 08:13:32;;;;;;;19.90;8.30;;;;;;;;;;5019474;28;20414;-72
2024/02/14 08:15:58;;;;;;;24.00;9.30;;;;;;;;;;5011646;28;20410;-72
2024/02/14 08:18:27;;;;;;;26.33;7.60;;;;;;;;;;5010801;28;20420;-72
2024/02/14 08:20:53;;;;;;;22.93;8.97;;;;;;;;;;5013117;28;20809;-71
2024/02/14 08:23:19;;;;;;;20.00;9.00;;;;;;;;;;5012052;28;20458;-71
2024/02/14 08:25:46;;;;;;;27.03;9.07;;;;;;;;;;5011267;28;20450;-72
2024/02/14 08:28:12;;;;;;;22.17;9.13;;;;;;;;;;5010487;28;20410;-71
2024/02/14 08:30:38;;;;;;;34.10;8.90;;;;;;;;;;5007983;28;20979;-71
2024/02/14 08:33:04;;;;;;;24.40;9.00;;;;;;;;;;5011582;28;20755;-71
2024/02/14 08:35:30;;;;;;;27.63;10.03;;;;;;;;;;5000533;28;20521;-72
2024/02/14 08:37:56;;;;;;;18.53;8.67;;;;;;;;;;5012256;28;20444;-71
2024/02/14 08:40:22;;;;;;;30.80;8.70;;;;;;;;;;5030257;28;20775;-71
2024/02/14 08:42:47;;;;;;;20.57;8.57;;;;;;;;;;5031386;28;20469;-71
2024/02/14 08:45:13;;;;;;;19.80;7.90;;;;;;;;;;5016244;28;20468;-72
2024/02/14 08:47:40;;;;;;;23.37;8.20;;;;;;;;;;5012027;28;20831;-72
2024/02/14 08:50:06;;;;;;;22.53;7.70;;;;;;;;;;5011708;28;20410;-70
2024/02/14 08:52:32;;;;;;;19.43;7.80;;;;;;;;;;5011681;28;20442;-71
2024/02/14 08:54:58;;;;;;;23.77;7.60;;;;;;;;;;5012528;28;20747;-70
2024/02/14 08:57:26;;;;;;;26.50;9.30;;;;;;;;;;5011209;28;20418;-70
2024/02/14 08:59:52;;;;;;;18.70;8.63;;;;;;;;;;5024673;28;20501;-72
2024/02/14 09:02:17;;;;;;;30.60;8.50;;;;;;;;;;5023381;28;20539;-72
2024/02/14 09:04:44;;;;;;;21.57;8.03;;;;;;;;;;5023292;28;20520;-71
2024/02/14 09:07:10;;;;;;;20.10;8.40;;;;;;;;;;5012058;28;20842;-71
2024/02/14 09:09:37;;;;;;;13.80;8.23;;;;;;;;;;5012993;28;20414;-72
2024/02/14 09:12:03;;;;;;;21.30;7.20;;;;;;;;;;5020516;28;20446;-71
2024/02/14 09:14:30;;;;;;;17.67;7.57;;;;;;;;;;5012247;28;20905;-71
2024/02/14 09:16:56;;;;;;;13.90;6.50;;;;;;;;;;5018475;28;20959;-71
2024/02/14 09:19:22;;;;;;;10.40;5.83;;;;;;;;;;5012926;28;20897;-72
2024/02/14 09:21:48;;;;;;;29.53;6.47;;;;;;;;;;5012905;28;20445;-72
2024/02/14 09:24:14;;;;;;;18.93;6.83;;;;;;;;;;5016046;28;20942;-71
2024/02/14 09:26:40;;;;;;;16.30;6.03;;;;;;;;;;5015134;28;20497;-71
2024/02/14 09:29:07;;;;;;;13.47;5.90;;;;;;;;;;5015490;28;20505;-71
2024/02/14 09:31:33;;;;;;;20.77;6.83;;;;;;;;;;5014302;28;20968;-73
2024/02/14 09:33:59;;;;;;;12.90;6.43;;;;;;;;;;5024498;28;20452;-72
2024/02/14 09:36:25;;;;;;;21.60;6.43;;;;;;;;;;5027571;28;20430;-72
2024/02/14 09:38:53;;;;;;;18.80;6.53;;;;;;;;;;5014756;28;20944;-72
2024/02/14 09:41:26;;;;;;;17.73;6.73;;;;;;;;;;5014140;28;20442;-74
2024/02/14 09:43:52;;;;;;;20.23;6.23;;;;;;;;;;5013331;28;20461;-74
2024/02/14 09:46:18;;;;;;;13.40;6.13;;;;;;;;;;5014867;28;20410;-72
2024/02/14 09:48:45;;;;;;;15.07;6.73;;;;;;;;;;5013991;28;20417;-72
2024/02/14 09:51:12;;;;;;;24.33;7.40;;;;;;;;;;5014001;28;20509;-74
2024/02/14 09:53:38;;;;;;;18.10;7.10;;;;;;;;;;5014409;28;20417;-71
2024/02/14 09:56:05;;;;;;;24.40;8.47;;;;;;;;;;5013846;28;20461;-72
2024/02/14 09:58:32;;;;;;;16.23;6.97;;;;;;;;;;5014128;28;20531;-72
2024/02/14 10:01:01;;;;;;;18.97;6.57;;;;;;;;;;5014098;28;20457;-72
2024/02/14 10:03:27;;;;;;;25.50;6.97;;;;;;;;;;5014201;28;20477;-72
2024/02/14 10:05:53;;;;;;;20.67;6.47;;;;;;;;;;5012593;28;20792;-72
2024/02/14 10:08:20;;;;;;;18.90;6.27;;;;;;;;;;5014271;28;20497;-70
2024/02/14 10:10:46;;;;;;;19.93;6.03;;;;;;;;;;5015089;28;20433;-73
2024/02/14 10:13:12;;;;;;;19.00;5.43;;;;;;;;;;5014071;28;20861;-72
2024/02/14 10:15:38;;;;;;;14.10;5.40;;;;;;;;;;5013750;28;20497;-71
2024/02/14 10:18:04;;;;;;;11.27;5.23;;;;;;;;;;5012537;28;20514;-72
2024/02/14 10:20:33;;;;;;;12.67;4.40;;;;;;;;;;5013485;28;20449;-71
2024/02/14 10:23:03;;;;;;;9.73;3.83;;;;;;;;;;5013962;28;20468;-73
2024/02/14 10:25:29;;;;;;;4.63;3.23;;;;;;;;;;5013352;28;20429;-71
2024/02/14 10:27:55;;;;;;;9.50;2.90;;;;;;;;;;5013823;28;20953;-70
2024/02/14 10:30:21;;;;;;;7.63;2.60;;;;;;;;;;5013337;28;20505;-70
2024/02/14 10:32:48;;;;;;;6.03;2.97;;;;;;;;;;5013251;28;20520;-71
2024/02/14 10:35:15;;;;;;;3.53;2.10;;;;;;;;;;5013280;28;20451;-71
2024/02/14 10:37:41;;;;;;;4.77;2.20;;;;;;;;;;5013368;28;20425;-72
2024/02/14 10:40:11;;;;;;;3.67;2.10;;;;;;;;;;5017508;28;20425;-72
2024/02/14 10:42:38;;;;;;;4.33;2.00;;;;;;;;;;5022346;28;20931;-72
2024/02/14 10:45:05;;;;;;;6.27;1.90;;;;;;;;;;5012454;28;20489;-72
2024/02/14 10:47:33;;;;;;;5.50;1.90;;;;;;;;;;5013529;28;20441;-72
2024/02/14 10:49:59;;;;;;;8.27;2.23;;;;;;;;;;5014500;28;20402;-71
2024/02/14 10:52:26;;;;;;;2.20;1.50;;;;;;;;;;5013333;28;20505;-71
2024/02/14 10:54:56;;;;;;;2.90;1.83;;;;;;;;;;5012451;28;20433;-71
2024/02/14 10:57:24;;;;;;;2.47;1.50;;;;;;;;;;5024465;28;20418;-70
2024/02/14 10:59:50;;;;;;;4.63;1.60;;;;;;;;;;5014601;28;20572;-70
2024/02/14 11:02:17;;;;;;;3.00;2.00;;;;;;;;;;5022073;28;20540;-72
2024/02/14 11:04:43;;;;;;;1.87;1.80;;;;;;;;;;5028405;28;20831;-72
2024/02/14 11:07:10;;;;;;;5.37;1.90;;;;;;;;;;5026603;28;20410;-72
2024/02/14 11:09:39;;;;;;;3.57;1.70;;;;;;;;;;5012008;28;20521;-72
2024/02/14 11:12:10;;;;;;;5.03;1.83;;;;;;;;;;5013498;28;20453;-71
2024/02/14 11:14:39;;;;;;;3.80;2.00;;;;;;;;;;5013005;28;20436;-72
2024/02/14 11:17:09;;;;;;;1.90;1.63;;;;;;;;;;5012888;28;20933;-71
2024/02/14 11:19:36;;;;;;;2.50;2.07;;;;;;;;;;5012958;28;20406;-71
2024/02/14 11:22:18;;;;;;;2.93;1.80;;;;;;;;;;5012314;28;20476;-72
2024/02/14 11:24:46;;;;;;;4.87;2.03;;;;;;;;;;5016269;28;21038;-73
2024/02/14 11:27:12;;;;;;;4.10;2.13;;;;;;;;;;5020636;28;20426;-71
2024/02/14 11:29:41;;;;;;;4.73;1.83;;;;;;;;;;5012932;28;20833;-71
2024/02/14 11:32:09;;;;;;;3.83;1.70;;;;;;;;;;5012190;28;20434;-71
2024/02/14 11:34:35;;;;;;;6.23;1.87;;;;;;;;;;5012071;28;20936;-71
2024/02/14 11:37:01;;;;;;;3.60;1.40;;;;;;;;;;5000728;28;20445;-72
2024/02/14 11:39:27;;;;;;;6.57;1.63;;;;;;;;;;5012785;28;20501;-71
2024/02/14 11:41:53;;;;;;;7.23;1.37;;;;;;;;;;5000550;28;20443;-71
2024/02/14 11:44:22;;;;;;;1.60;1.40;;;;;;;;;;5012048;28;20548;-72
2024/02/14 11:46:48;;;;;;;6.03;1.30;;;;;;;;;;5011852;28;20992;-71
2024/02/14 11:49:14;;;;;;;3.07;1.40;;;;;;;;;;5012549;28;20487;-70
2024/02/14 11:51:41;;;;;;;1.63;1.37;;;;;;;;;;5030918;28;20446;-72
2024/02/14 11:54:07;;;;;;;2.87;1.40;;;;;;;;;;5033321;28;20422;-72
2024/02/14 11:56:33;;;;;;;2.43;1.40;;;;;;;;;;5020889;28;20414;-72
2024/02/14 11:59:04;;;;;;;3.70;1.70;;;;;;;;;;5022866;28;20413;-72
2024/02/14 12:01:39;;;;;;;3.47;1.50;;;;;;;;;;5031896;28;20510;-72
2024/02/14 12:04:09;;;;;;;3.77;1.63;;;;;;;;;;5012847;28;20465;-72
2024/02/14 12:06:38;;;;;;;2.90;1.40;;;;;;;;;;5013362;28;20474;-72
2024/02/14 12:09:12;;;;;;;1.80;1.27;;;;;;;;;;5012099;28;20418;-72
2024/02/14 12:11:38;;;;;;;2.30;1.40;;;;;;;;;;5027956;28;20432;-72
2024/02/14 12:14:08;;;;;;;7.20;1.50;;;;;;;;;;5014162;28;20410;-71
2024/02/14 12:16:36;;;;;;;1.20;1.20;;;;;;;;;;5031773;28;20417;-72
2024/02/14 12:19:09;;;;;;;3.20;1.70;;;;;;;;;;5014205;28;20424;-72
2024/02/14 12:21:38;;;;;;;1.80;1.33;;;;;;;;;;5011831;28;20453;-72
2024/02/14 12:24:07;;;;;;;3.70;1.60;;;;;;;;;;5011590;28;20635;-72
2024/02/14 12:26:33;;;;;;;8.10;1.50;;;;;;;;;;5012122;28;20437;-71
2024/02/14 12:29:03;;;;;;;2.23;1.50;;;;;;;;;;5011886;28;20422;-71
2024/02/14 12:31:30;;;;;;;3.23;1.47;;;;;;;;;;5011672;28;20918;-71
2024/02/14 12:33:59;;;;;;;2.70;1.43;;;;;;;;;;5012885;28;20426;-73
2024/02/14 12:36:25;;;;;;;1.10;1.00;;;;;;;;;;5014161;28;20429;-71
2024/02/14 12:38:52;;;;;;;2.70;1.10;;;;;;;;;;5015334;28;20921;-72
2024/02/14 12:41:18;;;;;;;5.20;1.43;;;;;;;;;;5012896;28;20437;-71
2024/02/14 12:43:44;;;;;;;2.50;1.13;;;;;;;;;;5014384;28;20465;-72
2024/02/14 12:46:10;;;;;;;2.30;1.10;;;;;;;;;;5010611;28;20425;-72
2024/02/14 12:48:36;;;;;;;1.13;1.03;;;;;;;;;;5011842;28;20410;-72
2024/02/14 12:51:02;;;;;;;1.20;1.10;;;;;;;;;;5011333;28;20426;-72
2024/02/14 12:53:28;;;;;;;4.83;0.90;;;;;;;;;;5004654;28;20422;-72
2024/02/14 12:55:54;;;;;;;2.43;0.97;;;;;;;;;;4992004;28;20421;-72
2024/02/14 12:58:20;;;;;;;1.73;1.20;;;;;;;;;;5007931;28;20527;-73
2024/02/14 13:00:47;;;;;;;1.47;1.07;;;;;;;;;;5015714;28;20454;-72
2024/02/14 13:03:13;;;;;;;1.00;0.90;;;;;;;;;;5014179;28;20468;-72
2024/02/14 13:05:40;;;;;;;1.37;0.97;;;;;;;;;;5014723;28;20893;-73
2024/02/14 13:08:06;;;;;;;1.73;1.17;;;;;;;;;;5015466;28;20465;-71
2024/02/14 13:10:32;;;;;;;1.73;1.20;;;;;;;;;;5015304;28;20849;-72
2024/02/14 13:12:58;;;;;;;1.13;1.00;;;;;;;;;;5015621;28;20449;-72
2024/02/14 13:15:25;;;;;;;2.77;1.00;;;;;;;;;;5014398;28;20476;-72
2024/02/14 13:17:51;;;;;;;1.30;1.03;;;;;;;;;;5024847;28;20453;-71
2024/02/14 13:20:17;;;;;;;3.53;1.30;;;;;;;;;;5015052;28;21138;-73
2024/02/14 13:22:43;;;;;;;1.67;1.27;;;;;;;;;;5021768;28;20512;-72
2024/02/14 13:25:09;;;;;;;1.10;1.10;;;;;;;;;;5033219;28;20912;-72
2024/02/14 13:27:35;;;;;;;1.57;1.10;;;;;;;;;;5023982;28;20914;-72
2024/02/14 13:30:02;;;;;;;2.50;1.20;;;;;;;;;;5015018;28;20446;-72
2024/02/14 13:32:28;;;;;;;1.27;1.10;;;;;;;;;;5015186;28;20437;-71
2024/02/14 13:34:54;;;;;;;1.20;1.10;;;;;;;;;;5014359;28;20533;-71
2024/02/14 13:37:20;;;;;;;2.63;1.47;;;;;;;;;;5013851;28;20461;-72
2024/02/14 13:39:47;;;;;;;2.77;1.43;;;;;;;;;;5024722;28;20428;-72
2024/02/14 13:42:13;;;;;;;2.73;1.10;;;;;;;;;;5034126;28;20565;-73
2024/02/14 13:44:39;;;;;;;2.07;1.40;;;;;;;;;;5014993;28;20611;-73
2024/02/14 13:47:06;;;;;;;4.70;1.80;;;;;;;;;;5014771;28;20414;-72
2024/02/14 13:49:32;;;;;;;1.70;1.50;;;;;;;;;;5014379;28;20433;-72
2024/02/14 13:51:58;;;;;;;1.60;1.20;;;;;;;;;;5014141;28;20437;-71
2024/02/14 13:54:24;;;;;;;1.60;1.20;;;;;;;;;;5014478;28;20481;-72
2024/02/14 13:56:51;;;;;;;3.40;1.10;;;;;;;;;;5014519;28;20461;-73
2024/02/14 13:59:18;;;;;;;1.47;1.20;;;;;;;;;;5014209;28;20476;-71
2024/02/14 14:01:44;;;;;;;3.40;1.50;;;;;;;;;;5012791;28;20457;-72
2024/02/14 14:04:10;;;;;;;3.63;1.67;;;;;;;;;;5013852;28;20588;-73
2024/02/14 14:06:36;;;;;;;0.80;0.80;;;;;;;;;;5014152;28;20414;-73
2024/02/14 14:09:07;;;;;;;4.63;0.80;;;;;;;;;;5013327;28;20426;-71
2024/02/14 14:11:33;;;;;;;2.00;1.27;;;;;;;;;;5014076;28;20426;-71
2024/02/14 14:14:02;;;;;;;1.50;1.10;;;;;;;;;;5013990;28;20425;-72
2024/02/14 14:16:27;;;;;;;1.23;1.23;;;;;;;;;;5014092;28;20433;-71
2024/02/14 14:18:53;;;;;;;1.47;0.97;;;;;;;;;;5014437;28;20425;-72
2024/02/14 14:21:19;;;;;;;0.90;0.90;;;;;;;;;;5014215;28;20434;-72
2024/02/14 14:23:46;;;;;;;1.40;1.00;;;;;;;;;;5013847;28;20907;-72
2024/02/14 14:26:13;;;;;;;1.37;0.97;;;;;;;;;;5012746;28;20415;-71
2024/02/14 14:28:39;;;;;;;1.83;1.23;;;;;;;;;;5013919;28;20415;-71
2024/02/14 14:31:05;;;;;;;0.70;0.70;;;;;;;;;;5013685;28;20426;-71
2024/02/14 14:33:31;;;;;;;1.30;1.10;;;;;;;;;;5013514;28;20984;-71
2024/02/14 14:35:58;;;;;;;0.80;0.67;;;;;;;;;;5013650;28;20413;-72
2024/02/14 14:38:23;;;;;;;1.43;1.07;;;;;;;;;;5013376;28;20460;-72
2024/02/14 14:40:49;;;;;;;2.53;0.80;;;;;;;;;;5013348;28;20442;-72
2024/02/14 14:43:19;;;;;;;1.33;0.93;;;;;;;;;;5013333;28;20469;-71
2024/02/14 14:45:45;;;;;;;2.03;1.20;;;;;;;;;;5013419;28;20433;-72
2024/02/14 14:48:11;;;;;;;1.40;1.20;;;;;;;;;;5013386;28;20402;-72
2024/02/14 14:50:37;;;;;;;1.40;1.17;;;;;;;;;;5013985;28;20444;-72
2024/02/14 14:53:03;;;;;;;2.57;1.63;;;;;;;;;;5013742;28;20410;-71
2024/02/14 14:55:49;;;;;;;0.90;0.90;;;;;;;;;;5014066;28;20415;-72
2024/02/14 14:58:15;;;;;;;2.40;1.13;;;;;;;;;;5013645;28;20414;-72
2024/02/14 15:00:42;;;;;;;5.20;1.30;;;;;;;;;;5015827;28;20446;-74
2024/02/14 15:03:08;;;;;;;2.27;1.30;;;;;;;;;;5028847;28;20457;-73
2024/02/14 15:05:34;;;;;;;2.50;1.20;;;;;;;;;;5025130;28;20417;-71
2024/02/14 15:08:00;;;;;;;4.60;1.40;;;;;;;;;;5014189;28;20410;-71
2024/02/14 15:10:26;;;;;;;4.00;1.10;;;;;;;;;;5013198;28;20873;-72
2024/02/14 15:12:52;;;;;;;1.17;0.93;;;;;;;;;;5013161;28;20418;-72
2024/02/14 15:15:20;;;;;;;1.07;1.03;;;;;;;;;;5014557;28;20903;-72
2024/02/14 15:17:46;;;;;;;4.07;1.20;;;;;;;;;;5032980;28;20409;-72
2024/02/14 15:20:12;;;;;;;1.33;1.30;;;;;;;;;;5014987;28;20845;-72
2024/02/14 15:22:38;;;;;;;2.97;1.60;;;;;;;;;;5013269;28;20443;-72
2024/02/14 15:25:04;;;;;;;3.30;1.40;;;;;;;;;;5013121;28;20960;-71
2024/02/14 15:27:32;;;;;;;2.03;1.20;;;;;;;;;;5011744;28;20514;-71
2024/02/14 15:35:27;;;;;;;2.33;1.80;;;;;;;;;;5012321;28;20929;-73
2024/02/14 15:37:53;;;;;;;3.80;1.53;;;;;;;;;;5012040;28;20418;-70
2024/02/14 15:40:20;;;;;;;3.17;1.50;;;;;;;;;;5012229;28;20426;-72
2024/02/14 15:42:47;;;;;;;2.70;1.33;;;;;;;;;;5012538;28;20464;-71
2024/02/14 15:45:16;;;;;;;2.27;1.30;;;;;;;;;;5016675;28;20409;-72
2024/02/14 15:47:43;;;;;;;1.73;1.30;;;;;;;;;;5030705;28;20491;-71
2024/02/14 15:50:09;;;;;;;2.73;1.57;;;;;;;;;;5016749;28;20414;-71
2024/02/14 15:52:35;;;;;;;3.93;1.40;;;;;;;;;;5012348;28;20413;-71
2024/02/14 15:55:01;;;;;;;3.50;1.60;;;;;;;;;;5016168;28;20807;-72
2024/02/14 15:57:27;;;;;;;1.10;1.10;;;;;;;;;;5012158;28;20913;-72
2024/02/14 15:59:53;;;;;;;1.57;1.40;;;;;;;;;;5018007;28;20937;-71
2024/02/14 16:02:19;;;;;;;4.43;1.23;;;;;;;;;;5011476;28;20660;-76
2024/02/14 16:04:45;;;;;;;2.83;1.43;;;;;;;;;;5011120;28;20519;-71
2024/02/14 16:07:11;;;;;;;3.30;1.60;;;;;;;;;;5013128;28;20464;-71
2024/02/14 16:09:37;;;;;;;1.97;1.27;;;;;;;;;;5014907;28;20526;-69
2024/02/14 16:12:03;;;;;;;2.30;1.30;;;;;;;;;;5002435;28;20492;-73
2024/02/14 16:14:29;;;;;;;1.17;1.07;;;;;;;;;;5009524;28;20417;-71
2024/02/14 16:16:55;;;;;;;3.27;1.60;;;;;;;;;;4997986;28;20897;-71
2024/02/14 16:19:21;;;;;;;2.20;1.40;;;;;;;;;;4990157;28;20469;-71
2024/02/14 16:21:47;;;;;;;3.53;1.57;;;;;;;;;;4991834;28;20906;-71
2024/02/14 16:24:13;;;;;;;2.77;1.73;;;;;;;;;;4991937;28;20497;-71
2024/02/14 16:26:39;;;;;;;2.30;1.43;;;;;;;;;;4992323;28;20430;-72
2024/02/14 16:29:05;;;;;;;2.47;1.40;;;;;;;;;;4991735;28;20402;-74
2024/02/14 16:31:31;;;;;;;3.60;1.17;;;;;;;;;;4992820;28;20419;-75
2024/02/14 16:33:56;;;;;;;1.63;1.20;;;;;;;;;;5003788;28;20449;-75
2024/02/14 16:36:22;;;;;;;1.73;1.10;;;;;;;;;;5015777;28;20421;-75
2024/02/14 16:38:48;;;;;;;7.87;1.20;;;;;;;;;;5015555;28;20491;-74
2024/02/14 16:41:16;;;;;;;1.27;1.10;;;;;;;;;;5028439;28;20444;-74
2024/02/14 16:43:42;;;;;;;1.40;1.10;;;;;;;;;;5035698;28;20475;-75
2024/02/14 16:46:08;;;;;;;2.83;1.20;;;;;;;;;;5035531;28;20413;-74
2024/02/14 16:48:34;;;;;;;1.80;1.43;;;;;;;;;;5035286;28;20413;-75
2024/02/14 16:51:00;;;;;;;3.10;1.13;;;;;;;;;;5035444;28;20425;-75
2024/02/14 16:53:26;;;;;;;1.20;1.10;;;;;;;;;;5035804;28;20492;-75
2024/02/14 16:55:52;;;;;;;3.87;2.10;;;;;;;;;;5033977;28;20432;-75
2024/02/14 16:58:18;;;;;;;5.33;2.33;;;;;;;;;;5036381;28;20417;-75
2024/02/14 17:00:44;;;;;;;10.60;3.47;;;;;;;;;;5035160;28;20480;-75
2024/02/14 17:03:09;;;;;;;3.50;2.40;;;;;;;;;;5035806;28;20815;-74
2024/02/14 17:05:36;;;;;;;9.10;4.77;;;;;;;;;;5036104;28;20463;-74
2024/02/14 17:08:02;;;;;;;7.43;4.40;;;;;;;;;;5032134;28;20425;-75
2024/02/14 17:10:28;;;;;;;7.70;4.40;;;;;;;;;;5013739;28;20422;-75
2024/02/14 17:12:54;;;;;;;7.20;4.37;;;;;;;;;;5023340;28;20422;-75
2024/02/14 17:15:20;;;;;;;7.73;4.30;;;;;;;;;;5034426;28;20405;-75
2024/02/14 17:17:46;;;;;;;9.03;5.00;;;;;;;;;;5028350;28;20954;-76
2024/02/14 17:20:12;;;;;;;8.33;5.20;;;;;;;;;;5013687;28;20509;-76
2024/02/14 17:22:38;;;;;;;11.33;5.10;;;;;;;;;;5014888;28;20417;-75
2024/02/14 17:25:05;;;;;;;8.10;3.33;;;;;;;;;;5014740;28;20983;-76
2024/02/14 17:27:31;;;;;;;6.50;3.00;;;;;;;;;;5014819;28;20414;-76
2024/02/14 17:29:57;;;;;;;5.53;2.90;;;;;;;;;;5013456;28;20708;-75
2024/02/14 17:32:25;;;;;;;3.30;2.27;;;;;;;;;;5017064;28;20552;-75
2024/02/14 17:34:51;;;;;;;3.63;2.20;;;;;;;;;;5016233;28;20488;-75
2024/02/14 17:37:17;;;;;;;4.13;3.20;;;;;;;;;;5015023;28;20442;-75
2024/02/14 17:39:43;;;;;;;2.83;2.10;;;;;;;;;;5014913;28;20937;-75
2024/02/14 17:42:09;;;;;;;9.27;2.33;;;;;;;;;;5014031;28;20469;-75
2024/02/14 17:44:35;;;;;;;5.23;2.70;;;;;;;;;;5013464;28;20556;-75
2024/02/14 17:47:01;;;;;;;6.40;3.43;;;;;;;;;;5031185;28;20459;-75
2024/02/14 17:49:27;;;;;;;16.90;7.83;;;;;;;;;;5034620;28;20409;-75
2024/02/14 17:51:53;;;;;;;15.93;7.83;;;;;;;;;;5033735;28;20436;-75
2024/02/14 17:54:19;;;;;;;13.23;6.30;;;;;;;;;;5033583;28;20420;-75
2024/02/14 17:56:45;;;;;;;10.90;6.23;;;;;;;;;;5033969;28;20956;-75
2024/02/14 17:59:12;;;;;;;8.87;4.73;;;;;;;;;;5034357;28;20437;-75
2024/02/14 18:01:38;;;;;;;7.53;3.83;;;;;;;;;;5033727;28;20445;-75
2024/02/14 18:04:04;;;;;;;4.90;3.20;;;;;;;;;;5033652;28;20518;-75
2024/02/14 18:06:31;;;;;;;11.47;4.37;;;;;;;;;;5052143;28;20425;-76
2024/02/14 18:09:00;;;;;;;16.13;5.30;;;;;;;;;;5058933;28;20405;-76
2024/02/14 18:11:26;;;;;;;11.63;4.63;;;;;;;;;;5045409;28;20476;-75
2024/02/14 18:13:52;;;;;;;8.77;4.70;;;;;;;;;;5034750;28;20437;-76
2024/02/14 18:16:19;;;;;;;9.73;4.20;;;;;;;;;;5032987;28;20428;-76
2024/02/14 18:18:45;;;;;;;9.40;4.20;;;;;;;;;;5034213;28;20488;-76
2024/02/14 18:21:11;;;;;;;13.07;5.43;;;;;;;;;;5033299;28;20440;-76
2024/02/14 18:23:38;;;;;;;5.50;3.20;;;;;;;;;;5033875;28;20468;-76
2024/02/14 18:26:04;;;;;;;7.57;3.53;;;;;;;;;;5033802;28;20540;-76
2024/02/14 18:28:31;;;;;;;3.50;2.40;;;;;;;;;;5034805;28;20516;-76
2024/02/14 18:30:58;;;;;;;2.97;2.47;;;;;;;;;;5051132;28;20433;-76
2024/02/14 18:33:25;;;;;;;4.97;3.10;;;;;;;;;;5046640;28;20461;-75
2024/02/14 18:35:51;;;;;;;3.13;2.33;;;;;;;;;;5034809;28;20406;-75
2024/02/14 18:38:20;;;;;;;5.70;3.20;;;;;;;;;;5028300;28;20736;-75
2024/02/14 18:40:46;;;;;;;8.37;4.50;;;;;;;;;;5016730;28;20453;-75
2024/02/14 18:43:12;;;;;;;7.53;3.70;;;;;;;;;;5016564;28;20973;-75
2024/02/14 18:45:38;;;;;;;6.90;3.47;;;;;;;;;;5015124;28;20417;-75
2024/02/14 18:48:05;;;;;;;8.80;3.50;;;;;;;;;;5016959;28;20461;-75
2024/02/14 18:50:32;;;;;;;8.20;3.50;;;;;;;;;;5016114;28;20469;-75
2024/02/14 18:52:57;;;;;;;6.23;2.30;;;;;;;;;;5018159;28;20443;-75
2024/02/14 18:55:24;;;;;;;5.97;2.90;;;;;;;;;;5020059;28;20414;-75
2024/02/14 18:57:50;;;;;;;5.17;2.47;;;;;;;;;;5015465;28;20488;-75
2024/02/14 19:00:16;;;;;;;6.27;3.43;;;;;;;;;;5015562;28;20890;-75
2024/02/14 19:02:43;;;;;;;3.60;2.50;;;;;;;;;;5016481;28;20925;-75
2024/02/14 19:05:09;;;;;;;8.20;3.07;;;;;;;;;;5016243;28;20464;-75
2024/02/14 19:07:36;;;;;;;3.83;2.10;;;;;;;;;;5012877;28;20418;-75
2024/02/14 19:10:03;;;;;;;2.77;2.03;;;;;;;;;;5013194;28;20422;-75
2024/02/14 19:12:32;;;;;;;4.80;2.67;;;;;;;;;;5014468;28;20423;-75
2024/02/14 19:14:59;;;;;;;8.00;3.63;;;;;;;;;;5015422;28;20490;-75
2024/02/14 19:17:25;;;;;;;7.37;3.57;;;;;;;;;;5014915;28;20410;-75
2024/02/14 19:19:50;;;;;;;8.23;3.90;;;;;;;;;;5014744;28;20861;-74
2024/02/14 19:22:16;;;;;;;8.90;3.80;;;;;;;;;;5013015;28;20799;-74
2024/02/14 19:24:43;;;;;;;4.60;3.37;;;;;;;;;;5012224;28;20508;-74
2024/02/14 19:27:09;;;;;;;6.67;3.57;;;;;;;;;;5012846;28;20437;-77
2024/02/14 19:29:34;;;;;;;10.47;5.00;;;;;;;;;;5022063;28;20803;-77
2024/02/14 19:32:00;;;;;;;14.13;6.27;;;;;;;;;;5033038;28;20920;-75
2024/02/14 19:34:27;;;;;;;13.63;5.80;;;;;;;;;;5032126;28;20417;-75
2024/02/14 19:36:54;;;;;;;10.83;4.70;;;;;;;;;;5031564;28;20413;-75
2024/02/14 19:39:20;;;;;;;9.43;5.17;;;;;;;;;;5030297;28;20445;-77
2024/02/14 19:41:46;;;;;;;6.10;3.50;;;;;;;;;;5031463;28;20467;-75
2024/02/14 19:44:12;;;;;;;6.13;3.40;;;;;;;;;;5031695;28;20465;-75
2024/02/14 19:46:39;;;;;;;5.50;2.87;;;;;;;;;;5032571;28;20441;-75
2024/02/14 19:49:05;;;;;;;5.27;2.63;;;;;;;;;;5030604;28;20826;-75
2024/02/14 19:51:31;;;;;;;11.47;4.90;;;;;;;;;;5030165;28;20447;-75
2024/02/14 19:53:57;;;;;;;12.47;5.70;;;;;;;;;;5031436;28;20413;-75
2024/02/14 19:56:23;;;;;;;9.50;5.27;;;;;;;;;;5031349;28;20419;-75
2024/02/14 19:58:50;;;;;;;9.60;4.40;;;;;;;;;;5013258;28;20430;-77
2024/02/14 20:01:16;;;;;;;17.33;5.27;;;;;;;;;;5011189;28;20480;-75
2024/02/14 20:03:44;;;;;;;10.73;5.53;;;;;;;;;;5011817;28;21048;-76
2024/02/14 20:06:10;;;;;;;12.40;6.27;;;;;;;;;;5011051;28;20886;-75
2024/02/14 20:08:37;;;;;;;15.67;6.60;;;;;;;;;;5011389;28;20437;-75
2024/02/14 20:11:05;;;;;;;18.63;7.13;;;;;;;;;;5011191;28;20909;-75
2024/02/14 20:13:32;;;;;;;14.33;6.10;;;;;;;;;;5011495;28;20785;-75
2024/02/14 20:15:59;;;;;;;8.73;4.03;;;;;;;;;;5011413;28;20445;-75
2024/02/14 20:18:26;;;;;;;9.10;3.73;;;;;;;;;;5014397;28;20413;-75
2024/02/14 20:20:52;;;;;;;6.13;3.00;;;;;;;;;;5031028;28;20439;-75
2024/02/14 20:23:18;;;;;;;4.57;2.80;;;;;;;;;;5031095;28;20543;-75
2024/02/14 20:25:44;;;;;;;3.30;2.10;;;;;;;;;;5031423;28;20433;-75
2024/02/14 20:28:12;;;;;;;5.00;2.93;;;;;;;;;;5031810;28;20978;-75
2024/02/14 20:30:38;;;;;;;6.40;3.40;;;;;;;;;;5031098;28;20505;-75
2024/02/14 20:33:05;;;;;;;5.50;3.20;;;;;;;;;;5031241;28;20405;-74
2024/02/14 20:35:34;;;;;;;4.60;2.63;;;;;;;;;;5031340;28;20406;-75
2024/02/14 20:38:00;;;;;;;3.83;2.50;;;;;;;;;;5018961;28;20828;-74
2024/02/14 20:40:26;;;;;;;5.63;3.23;;;;;;;;;;5010814;28;20466;-74